Accueil
METAR-TAF:

METAR-TAF

Aéroports :

Aéroport international Hang Nadim

Batam, Indonésie

latitude: 01-07-15N, longitude: 104-07-07E, altitude: 38 m

Observation

Le bulletin a été fait il y a 47 minutes, à 17:00 UTC
Vent 8 kt de est/nord-est
Température 29°C
Humidité 74%
Pression 1012 hPa
Visibilité 10 km ou plus
Quelques nuages à une hauteur de 1400 ft

METAR: WIDD 021700Z 06008KT 9999 FEW014 29/24 Q1012 NOSIG

Heure: 00:47 (17:47 UTC)

Prévision

Le bulletin a été fait il y a 6 heures et 47 minutes, à 11:00 UTC
Prévision valable du 02 à 12 UTC au 03 à 12 UTC
Vent 6 kt de nord-est
Visibilité 10 km ou plus
Nuages épars à une hauteur de 1400 ft

TAF: WIDD 021100Z 0212/0312 04006KT 9999 SCT014

Observations et prévisions météorologiques de plus de 4000 aéroports (messages METAR et TAF).

Les stations disponibles sont représentées par des disques jaunes et rouges sur la carte.

Passer la souris dessus pour voir le nom de la station.

Cliquer dessus pour voir les observations et prévisions météorologiques.

Pour changer de carte: cliquez sur les boutons verts avec une croix noire pour zoomer, sur le bouton vert avec un tiret pour effectuer un zoom arrière, ou sur les flèches vertes pour les cartes adjacentes.


METAR-TAF: